Time;durP1;ratioP1;P1;durP2;ratioP2;P2;SDS_P1;SDS_P2;PMS_P1;PMS_P2;Temp;Humidity;BMP_temperature;BMP_pressure;BME280_temperature;BME280_humidity;BME280_pressure;Samples;Min_cycle;Max_cycle;Signal;HPM_P1;HPM_P2
2022/12/07 00:00:17;;;;;;;8.30;5.85;;;5.50;99.90;;;;;;5039846;28;20091;-39
2022/12/07 00:02:43;;;;;;;6.15;5.22;;;5.50;99.90;;;;;;5039082;28;20036;-40
2022/12/07 00:05:08;;;;;;;10.80;6.40;;;5.50;99.90;;;;;;5038764;28;20064;-40
2022/12/07 00:07:34;;;;;;;7.95;5.63;;;5.50;99.90;;;;;;5039433;28;20033;-36
2022/12/07 00:09:59;;;;;;;7.47;5.60;;;5.40;99.90;;;;;;5039201;28;20039;-40
2022/12/07 00:12:25;;;;;;;8.00;6.00;;;5.40;99.90;;;;;;5038982;28;20056;-40
2022/12/07 00:14:50;;;;;;;6.00;4.40;;;5.40;99.90;;;;;;5038862;28;20809;-40
2022/12/07 00:17:16;;;;;;;9.32;5.22;;;5.40;99.90;;;;;;5038988;28;20052;-40
2022/12/07 00:19:42;;;;;;;5.25;4.55;;;5.30;99.90;;;;;;5042799;28;20060;-38
2022/12/07 00:22:07;;;;;;;7.30;5.32;;;5.30;99.90;;;;;;5043081;28;20132;-42
2022/12/07 00:24:33;;;;;;;6.10;5.22;;;5.30;99.90;;;;;;5043412;28;20029;-41
2022/12/07 00:26:58;;;;;;;7.32;5.30;;;5.20;99.90;;;;;;5043387;28;20086;-39
2022/12/07 00:29:24;;;;;;;6.57;5.00;;;5.20;99.90;;;;;;5043789;28;20032;-40
2022/12/07 00:31:49;;;;;;;6.10;5.20;;;5.20;99.90;;;;;;5042916;28;20568;-43
2022/12/07 00:34:19;;;;;;;7.47;5.45;;;5.20;99.90;;;;;;5042708;28;20706;-41
2022/12/07 00:36:48;;;;;;;8.65;5.40;;;5.20;99.90;;;;;;5043482;28;20040;-41
2022/12/07 00:39:14;;;;;;;7.25;4.85;;;5.10;99.90;;;;;;5042723;28;20049;-42
2022/12/07 00:41:40;;;;;;;10.05;5.70;;;5.10;99.90;;;;;;5042996;28;20119;-40
2022/12/07 00:44:05;;;;;;;7.40;5.20;;;5.10;99.90;;;;;;5042938;28;20021;-40
2022/12/07 00:46:31;;;;;;;7.50;5.00;;;5.10;99.90;;;;;;5042427;28;20033;-41
2022/12/07 00:48:57;;;;;;;5.80;5.10;;;5.10;99.90;;;;;;5041956;28;20032;-40
2022/12/07 00:51:24;;;;;;;8.63;5.40;;;5.10;99.90;;;;;;5042902;28;20044;-40
2022/12/07 00:53:51;;;;;;;8.30;5.38;;;5.20;99.90;;;;;;5042063;28;20033;-42
2022/12/07 00:56:25;;;;;;;7.57;5.00;;;5.10;99.90;;;;;;5042484;28;20060;-39
2022/12/07 00:58:59;;;;;;;7.85;4.78;;;5.10;99.90;;;;;;5043328;28;20138;-39
2022/12/07 01:01:26;;;;;;;6.45;4.63;;;5.10;99.90;;;;;;5041966;28;20067;-40
2022/12/07 01:03:52;;;;;;;4.90;4.43;;;5.00;99.90;;;;;;5043067;28;20088;-39
2022/12/07 01:06:20;;;;;;;8.07;4.97;;;5.00;99.90;;;;;;5042760;28;20841;-39
2022/12/07 01:08:45;;;;;;;6.15;4.50;;;5.00;99.90;;;;;;5041700;28;20024;-40
2022/12/07 01:11:17;;;;;;;8.88;5.10;;;5.00;99.90;;;;;;5042151;28;20094;-41
2022/12/07 01:13:43;;;;;;;7.07;4.68;;;4.90;99.90;;;;;;5042306;28;20032;-40
2022/12/07 01:16:12;;;;;;;5.75;4.47;;;5.00;99.90;;;;;;5041655;28;20043;-40
2022/12/07 01:18:38;;;;;;;6.75;4.32;;;4.90;99.90;;;;;;5042018;28;20029;-39
2022/12/07 01:21:15;;;;;;;6.97;4.40;;;4.90;99.90;;;;;;5041398;28;20036;-39
2022/12/07 01:23:42;;;;;;;7.05;4.70;;;4.90;99.90;;;;;;5042846;28;20021;-39
2022/12/07 01:26:11;;;;;;;8.30;4.90;;;4.90;99.90;;;;;;5041934;28;20044;-39
2022/12/07 01:28:36;;;;;;;6.25;4.90;;;4.90;99.90;;;;;;5041305;28;20378;-41
2022/12/07 01:31:11;;;;;;;6.70;4.55;;;4.80;99.90;;;;;;5042228;28;20029;-39
2022/12/07 01:33:38;;;;;;;6.78;4.60;;;4.80;99.90;;;;;;5042075;28;20033;-39
2022/12/07 01:36:06;;;;;;;8.10;5.25;;;4.80;99.90;;;;;;5042083;28;20143;-41
2022/12/07 01:38:32;;;;;;;8.43;5.30;;;4.80;99.90;;;;;;5042661;28;20136;-40
2022/12/07 01:40:59;;;;;;;5.57;4.68;;;4.80;99.90;;;;;;5041635;28;20643;-41
2022/12/07 01:43:27;;;;;;;6.25;4.38;;;4.70;99.90;;;;;;5041845;28;20064;-39
2022/12/07 01:45:53;;;;;;;5.43;4.22;;;4.80;99.90;;;;;;5042172;28;20025;-41
2022/12/07 01:48:26;;;;;;;7.28;4.55;;;4.70;99.90;;;;;;5041525;28;20029;-40
2022/12/07 01:50:53;;;;;;;6.35;4.60;;;4.70;99.90;;;;;;5041341;28;20029;-37
2022/12/07 01:53:24;;;;;;;7.07;4.65;;;4.70;99.90;;;;;;5042037;28;20737;-40
2022/12/07 01:55:53;;;;;;;6.82;4.20;;;4.70;99.90;;;;;;5042508;28;20032;-40
2022/12/07 01:58:19;;;;;;;9.25;4.68;;;4.60;99.90;;;;;;5041665;28;20024;-38
2022/12/07 02:00:45;;;;;;;6.25;4.20;;;4.60;99.90;;;;;;5041846;28;20136;-39
2022/12/07 02:03:15;;;;;;;4.93;3.95;;;4.70;99.90;;;;;;5041254;28;20021;-41
2022/12/07 02:05:43;;;;;;;6.88;4.57;;;4.60;99.90;;;;;;5041198;28;20027;-40
2022/12/07 02:08:10;;;;;;;7.68;4.45;;;4.60;99.90;;;;;;5042441;28;20017;-40
2022/12/07 02:10:35;;;;;;;6.53;4.93;;;4.60;99.90;;;;;;5041328;28;20039;-39
2022/12/07 02:13:04;;;;;;;10.88;4.75;;;4.60;99.90;;;;;;5038162;28;20025;-39
2022/12/07 02:16:14;;;;;;;5.53;4.20;;;4.60;99.90;;;;;;5042632;28;20148;-40
2022/12/07 02:19:02;;;;;;;5.90;4.05;;;4.60;99.90;;;;;;5029163;28;20770;-40
2022/12/07 02:21:51;;;;;;;7.93;4.40;;;4.60;99.90;;;;;;5041725;28;20840;-40
2022/12/07 02:24:42;;;;;;;5.65;3.75;;;4.50;99.90;;;;;;5040792;28;20036;-38
2022/12/07 02:27:26;;;;;;;6.82;3.70;;;4.50;99.90;;;;;;5041392;28;20053;-41
2022/12/07 02:30:22;;;;;;;5.05;3.70;;;4.50;99.90;;;;;;5041151;28;20036;-41
2022/12/07 02:32:57;;;;;;;5.22;3.97;;;4.50;99.90;;;;;;5041399;28;20119;-38
2022/12/07 02:35:33;;;;;;;7.75;4.38;;;4.50;99.90;;;;;;5042113;28;20376;-40
2022/12/07 02:38:15;;;;;;;8.60;3.88;;;4.40;99.90;;;;;;5040889;28;20519;-39
2022/12/07 02:40:48;;;;;;;6.38;3.92;;;4.40;99.90;;;;;;5040522;28;20033;-40
2022/12/07 02:43:23;;;;;;;9.43;4.30;;;4.40;99.90;;;;;;5040943;28;20350;-40
2022/12/07 02:45:51;;;;;;;6.55;4.07;;;4.40;99.90;;;;;;5040552;28;20032;-39
2022/12/07 02:48:19;;;;;;;7.13;3.95;;;4.40;99.90;;;;;;5040732;28;20064;-40
2022/12/07 02:50:49;;;;;;;7.53;4.38;;;4.30;99.90;;;;;;5039479;28;20029;-41
2022/12/07 02:53:50;;;;;;;8.07;3.95;;;4.30;99.90;;;;;;5036813;28;20036;-40
2022/12/07 02:56:50;;;;;;;6.65;3.50;;;4.40;99.90;;;;;;5020351;28;20052;-40
2022/12/07 03:00:02;;;;;;;7.68;3.85;;;4.40;99.90;;;;;;5039220;28;20037;-40
2022/12/07 03:03:00;;;;;;;7.32;4.45;;;4.40;99.90;;;;;;5039502;28;20068;-39
2022/12/07 03:05:52;;;;;;;4.88;3.40;;;4.40;99.90;;;;;;5031712;28;20068;-39
2022/12/07 03:08:28;;;;;;;6.72;3.47;;;4.40;99.90;;;;;;5038275;28;20071;-42
2022/12/07 03:10:59;;;;;;;4.80;3.53;;;4.40;99.90;;;;;;5031550;28;20112;-40
2022/12/07 03:13:45;;;;;;;8.25;3.72;;;4.40;99.90;;;;;;5031291;28;20029;-40
2022/12/07 03:16:19;;;;;;;4.78;3.15;;;4.40;99.90;;;;;;5046354;28;20049;-39
2022/12/07 03:18:52;;;;;;;4.40;3.40;;;4.40;99.90;;;;;;5050128;28;20033;-38
2022/12/07 03:21:23;;;;;;;6.82;3.60;;;4.40;99.90;;;;;;5038902;28;20800;-40
2022/12/07 03:23:53;;;;;;;6.18;3.20;;;4.40;99.90;;;;;;5039901;28;20025;-40
2022/12/07 03:26:21;;;;;;;8.55;3.42;;;4.50;99.90;;;;;;5040044;28;20165;-40
2022/12/07 03:28:52;;;;;;;4.82;2.97;;;4.50;99.90;;;;;;5039042;28;20813;-40
2022/12/07 03:31:24;;;;;;;6.95;3.40;;;4.60;99.90;;;;;;5040352;28;20036;-39
2022/12/07 03:34:06;;;;;;;5.88;3.65;;;4.60;99.90;;;;;;5039799;28;20100;-40
2022/12/07 03:36:39;;;;;;;6.03;3.23;;;4.70;99.90;;;;;;5039406;28;20047;-39
2022/12/07 03:39:25;;;;;;;5.60;3.17;;;4.70;99.90;;;;;;5039418;28;20041;-38
2022/12/07 03:41:52;;;;;;;5.13;3.00;;;4.70;99.90;;;;;;5039009;28;20075;-40
2022/12/07 03:44:18;;;;;;;4.28;2.80;;;4.70;99.90;;;;;;5039051;28;20877;-40
2022/12/07 03:47:04;;;;;;;4.63;2.80;;;4.70;99.90;;;;;;5040455;28;20033;-37
2022/12/07 03:49:32;;;;;;;9.27;3.47;;;4.80;99.90;;;;;;5039925;28;20029;-40
2022/12/07 03:52:24;;;;;;;6.03;3.03;;;4.80;99.90;;;;;;5038922;28;20060;-41
2022/12/07 03:54:59;;;;;;;5.07;2.88;;;4.80;99.90;;;;;;5039515;28;20028;-38
2022/12/07 03:57:28;;;;;;;6.72;3.13;;;4.80;99.90;;;;;;5038986;28;20048;-41
2022/12/07 03:59:55;;;;;;;5.25;2.80;;;4.70;99.90;;;;;;5039224;28;20032;-41
2022/12/07 04:02:23;;;;;;;6.97;2.97;;;4.70;99.90;;;;;;5039839;28;20033;-39
2022/12/07 04:04:49;;;;;;;4.78;2.90;;;4.70;99.90;;;;;;5038790;28;20556;-40
2022/12/07 04:07:15;;;;;;;4.43;2.95;;;4.70;99.90;;;;;;5039469;28;20036;-40
2022/12/07 04:09:40;;;;;;;5.22;2.40;;;4.70;99.90;;;;;;5039261;28;20025;-40
2022/12/07 04:12:06;;;;;;;4.47;2.50;;;4.70;99.90;;;;;;5039381;28;20028;-40
2022/12/07 04:14:32;;;;;;;5.53;3.00;;;4.70;99.90;;;;;;5040643;28;20021;-40
2022/12/07 04:17:01;;;;;;;6.43;2.75;;;4.70;99.90;;;;;;5038857;28;20068;-39
2022/12/07 04:19:31;;;;;;;4.25;2.30;;;4.80;99.90;;;;;;5040520;28;20029;-39
2022/12/07 04:21:58;;;;;;;7.60;2.58;;;4.70;99.90;;;;;;5039527;28;20044;-43
2022/12/07 04:24:25;;;;;;;4.05;2.35;;;4.70;99.90;;;;;;5039637;28;20566;-40
2022/12/07 04:26:51;;;;;;;6.18;2.40;;;4.70;99.90;;;;;;5039927;28;20028;-39
2022/12/07 04:29:17;;;;;;;5.28;2.42;;;4.70;99.90;;;;;;5040022;28;20017;-38
2022/12/07 04:31:43;;;;;;;4.60;2.40;;;4.60;99.90;;;;;;5039108;28;20547;-37
2022/12/07 04:34:09;;;;;;;5.38;2.60;;;4.60;99.90;;;;;;5039681;28;20021;-40
2022/12/07 04:36:35;;;;;;;4.25;2.50;;;4.60;99.90;;;;;;5039812;28;20052;-40
2022/12/07 04:39:02;;;;;;;5.20;2.38;;;4.60;99.90;;;;;;5038992;28;20048;-41
2022/12/07 04:41:28;;;;;;;4.50;2.20;;;4.60;99.90;;;;;;5039488;28;20980;-40
2022/12/07 04:43:58;;;;;;;4.53;2.30;;;4.70;99.90;;;;;;5039538;28;20570;-40
2022/12/07 04:46:25;;;;;;;4.43;1.95;;;4.70;99.90;;;;;;5038274;28;20049;-39
2022/12/07 04:48:52;;;;;;;4.88;2.33;;;4.70;99.90;;;;;;5038620;28;20642;-41
2022/12/07 04:51:22;;;;;;;4.78;2.30;;;4.70;99.90;;;;;;5039232;28;20037;-41
2022/12/07 04:53:48;;;;;;;3.72;2.03;;;4.70;99.90;;;;;;5038088;28;20473;-40
2022/12/07 04:56:15;;;;;;;4.32;2.00;;;4.70;99.90;;;;;;5038680;28;20099;-40
2022/12/07 04:58:45;;;;;;;3.03;2.05;;;4.70;99.90;;;;;;5039592;28;20131;-39
2022/12/07 05:01:12;;;;;;;5.20;1.98;;;4.70;99.90;;;;;;5038239;28;20039;-40
2022/12/07 05:03:38;;;;;;;3.40;1.92;;;4.60;99.90;;;;;;5039735;28;20025;-42
2022/12/07 05:06:05;;;;;;;5.47;2.05;;;4.60;99.90;;;;;;5042155;28;20025;-41
2022/12/07 05:08:31;;;;;;;4.45;1.98;;;4.60;99.90;;;;;;5041807;28;20506;-40
2022/12/07 05:10:57;;;;;;;6.05;1.80;;;4.60;99.90;;;;;;5042033;28;20028;-41
2022/12/07 05:13:22;;;;;;;3.67;1.50;;;4.50;99.90;;;;;;5041995;28;20040;-41
2022/12/07 05:15:48;;;;;;;1.90;1.58;;;4.50;99.90;;;;;;5042098;28;20071;-41
2022/12/07 05:18:15;;;;;;;3.33;1.60;;;4.50;99.90;;;;;;5042244;28;20025;-43
2022/12/07 05:20:41;;;;;;;5.00;1.88;;;4.40;99.90;;;;;;5041341;28;20032;-39
2022/12/07 05:23:06;;;;;;;3.05;1.85;;;4.40;99.90;;;;;;5042041;28;20009;-40
2022/12/07 05:25:32;;;;;;;5.18;1.70;;;4.40;99.90;;;;;;5042378;28;20032;-37
2022/12/07 05:27:58;;;;;;;4.40;1.65;;;4.40;99.90;;;;;;5041335;28;20028;-38
2022/12/07 05:30:25;;;;;;;2.55;1.27;;;4.40;99.90;;;;;;5042640;28;20087;-40
2022/12/07 05:32:50;;;;;;;4.53;1.90;;;4.40;99.90;;;;;;5042118;28;20028;-40
2022/12/07 05:35:16;;;;;;;2.00;1.30;;;4.40;99.90;;;;;;5041213;28;20390;-40
2022/12/07 05:37:42;;;;;;;4.25;1.75;;;4.40;99.90;;;;;;5041625;28;20085;-37
2022/12/07 05:40:09;;;;;;;4.38;1.58;;;4.40;99.90;;;;;;5041817;28;20221;-39
2022/12/07 05:42:34;;;;;;;2.92;1.55;;;4.50;99.90;;;;;;5041871;28;20036;-39
2022/12/07 05:45:00;;;;;;;2.50;1.35;;;4.50;99.90;;;;;;5041974;28;20025;-39
2022/12/07 05:47:26;;;;;;;3.65;1.70;;;4.50;99.90;;;;;;5042233;28;20028;-40
2022/12/07 05:49:51;;;;;;;2.78;1.30;;;4.50;99.90;;;;;;5040600;28;20778;-41
2022/12/07 05:52:17;;;;;;;2.55;1.20;;;4.40;99.90;;;;;;5041366;28;20040;-40
2022/12/07 05:54:42;;;;;;;4.85;1.40;;;4.40;99.90;;;;;;5041658;28;20536;-38
2022/12/07 05:57:08;;;;;;;3.47;1.45;;;4.30;99.90;;;;;;5040801;28;20045;-41
2022/12/07 05:59:33;;;;;;;2.08;1.30;;;4.30;99.90;;;;;;5041357;28;20029;-38
2022/12/07 06:02:11;;;;;;;3.10;1.23;;;4.20;99.90;;;;;;5042372;28;20070;-38
2022/12/07 06:04:40;;;;;;;3.10;1.50;;;4.20;99.90;;;;;;5041055;28;20059;-40
2022/12/07 06:07:06;;;;;;;3.10;1.40;;;4.20;99.90;;;;;;5041591;28;20043;-40
2022/12/07 06:09:34;;;;;;;4.93;1.27;;;4.20;99.90;;;;;;5040946;28;20064;-41
2022/12/07 06:14:44;;;;;;;3.85;1.30;;;4.10;99.90;;;;;;5041118;28;20047;-40
2022/12/07 06:17:11;;;;;;;1.90;1.40;;;4.10;99.90;;;;;;5040850;28;20810;-41
2022/12/07 06:19:37;;;;;;;4.75;1.55;;;4.10;99.90;;;;;;5041446;28;20075;-40
2022/12/07 06:22:04;;;;;;;2.58;1.45;;;4.00;99.90;;;;;;5040717;28;20032;-39
2022/12/07 06:24:30;;;;;;;3.30;1.70;;;4.00;99.90;;;;;;5041279;28;20025;-40
2022/12/07 06:26:56;;;;;;;4.72;1.48;;;4.00;99.90;;;;;;5029793;28;20079;-41
2022/12/07 06:29:21;;;;;;;5.43;1.90;;;4.00;99.90;;;;;;5040974;28;20025;-39
2022/12/07 06:31:47;;;;;;;3.75;1.83;;;4.00;99.90;;;;;;5040346;28;20468;-41
2022/12/07 06:34:16;;;;;;;3.00;1.45;;;4.00;99.90;;;;;;5040606;28;20124;-41
2022/12/07 06:36:42;;;;;;;6.15;1.42;;;3.90;99.90;;;;;;5040763;28;20037;-40
2022/12/07 06:39:08;;;;;;;4.07;1.30;;;4.00;99.90;;;;;;5040506;28;20057;-39
2022/12/07 06:41:38;;;;;;;3.15;1.40;;;4.00;99.90;;;;;;5040960;28;20033;-42
2022/12/07 06:44:05;;;;;;;3.70;1.50;;;4.00;99.90;;;;;;5040720;28;20460;-43
2022/12/07 06:46:31;;;;;;;1.60;1.10;;;4.00;99.90;;;;;;5039444;28;20032;-38
2022/12/07 06:48:56;;;;;;;2.70;1.50;;;4.00;99.90;;;;;;5038561;28;20024;-40
2022/12/07 06:51:22;;;;;;;2.33;1.30;;;4.00;99.90;;;;;;5039062;28;20864;-40
2022/12/07 06:53:48;;;;;;;5.90;1.40;;;4.00;99.90;;;;;;5039469;28;20032;-42
2022/12/07 06:56:14;;;;;;;4.82;1.38;;;4.10;99.90;;;;;;5039333;28;20033;-39
2022/12/07 06:58:40;;;;;;;3.63;1.55;;;4.00;99.90;;;;;;5038436;28;20518;-38
2022/12/07 07:01:13;;;;;;;3.83;1.70;;;4.10;99.90;;;;;;5039071;28;20027;-37
2022/12/07 07:03:39;;;;;;;3.10;1.25;;;4.10;99.90;;;;;;5040570;28;20071;-40
2022/12/07 07:06:06;;;;;;;4.90;1.77;;;4.20;99.90;;;;;;5039659;28;20469;-41
2022/12/07 07:08:31;;;;;;;4.43;1.52;;;4.20;99.90;;;;;;5041046;28;20110;-37
2022/12/07 07:10:57;;;;;;;6.45;1.55;;;4.30;99.90;;;;;;5039317;28;20301;-39
2022/12/07 07:13:22;;;;;;;3.17;1.30;;;4.30;99.90;;;;;;5039545;28;20186;-40
2022/12/07 07:15:48;;;;;;;4.53;1.38;;;4.30;99.90;;;;;;5039039;28;20117;-39
2022/12/07 07:18:14;;;;;;;3.22;1.25;;;4.20;99.90;;;;;;5040357;28;20021;-40
2022/12/07 07:20:39;;;;;;;2.80;1.00;;;4.20;99.90;;;;;;5040087;28;20031;-38
2022/12/07 07:23:05;;;;;;;5.88;1.38;;;4.20;99.90;;;;;;5040138;28;20112;-40
2022/12/07 07:25:31;;;;;;;3.72;1.52;;;4.20;99.90;;;;;;5040326;28;20774;-39
2022/12/07 07:27:59;;;;;;;2.35;1.20;;;4.10;99.90;;;;;;5038740;28;20040;-41
2022/12/07 07:30:25;;;;;;;4.90;1.35;;;4.10;99.90;;;;;;5040451;28;20025;-40
2022/12/07 07:32:51;;;;;;;4.95;1.52;;;4.10;99.90;;;;;;5040139;28;20037;-40
2022/12/07 07:35:16;;;;;;;2.35;1.40;;;4.10;99.90;;;;;;5039625;28;20033;-41
2022/12/07 07:37:42;;;;;;;5.93;1.60;;;4.00;99.90;;;;;;5039787;28;20164;-40
2022/12/07 07:40:09;;;;;;;7.15;1.50;;;4.00;99.90;;;;;;5040060;28;20029;-40
2022/12/07 07:42:35;;;;;;;2.28;1.20;;;4.00;99.90;;;;;;5038997;28;20044;-41
2022/12/07 07:45:00;;;;;;;4.20;1.20;;;4.00;99.90;;;;;;5039978;28;20556;-40
2022/12/07 07:47:26;;;;;;;5.55;1.40;;;4.00;99.90;;;;;;5039811;28;20036;-42
2022/12/07 07:49:51;;;;;;;6.18;1.42;;;4.00;99.90;;;;;;5039472;28;20188;-40
2022/12/07 07:52:17;;;;;;;2.42;1.00;;;4.00;99.90;;;;;;5039617;28;20029;-40
2022/12/07 07:54:43;;;;;;;4.32;1.27;;;4.00;99.90;;;;;;5035848;28;20025;-41
2022/12/07 07:57:08;;;;;;;4.72;1.48;;;4.00;99.90;;;;;;5035403;28;20041;-41
2022/12/07 07:59:34;;;;;;;4.68;1.90;;;4.00;99.90;;;;;;5039084;28;20127;-41
2022/12/07 08:01:59;;;;;;;4.10;1.38;;;4.00;99.90;;;;;;5039212;28;20060;-40
2022/12/07 08:04:25;;;;;;;2.88;1.35;;;4.00;99.90;;;;;;5039245;28;20025;-40
2022/12/07 08:06:51;;;;;;;3.50;1.40;;;3.90;99.90;;;;;;5037955;28;20837;-40
2022/12/07 08:09:16;;;;;;;2.67;1.38;;;3.90;99.90;;;;;;5037132;28;20025;-40
2022/12/07 08:11:42;;;;;;;2.90;1.48;;;4.00;99.90;;;;;;5037935;28;20654;-41
2022/12/07 08:14:07;;;;;;;1.88;1.30;;;4.00;99.90;;;;;;5038395;28;20041;-41
2022/12/07 08:16:33;;;;;;;2.08;1.20;;;4.00;99.90;;;;;;5038123;28;20095;-39
2022/12/07 08:18:58;;;;;;;4.80;1.40;;;4.00;99.90;;;;;;5039483;28;20032;-39
2022/12/07 08:21:24;;;;;;;2.08;1.10;;;4.10;99.90;;;;;;5039275;28;20040;-41
2022/12/07 08:23:52;;;;;;;4.97;1.48;;;4.20;99.90;;;;;;5038167;28;20021;-41
2022/12/07 08:26:18;;;;;;;4.55;1.80;;;4.20;99.90;;;;;;5038505;28;20133;-40
2022/12/07 08:28:45;;;;;;;4.38;1.48;;;4.30;99.90;;;;;;5039009;28;20017;-39
2022/12/07 08:31:13;;;;;;;5.97;1.30;;;4.40;99.90;;;;;;5035255;28;20075;-40
2022/12/07 08:33:38;;;;;;;4.40;1.80;;;4.50;99.90;;;;;;5038845;28;20128;-40
2022/12/07 08:36:07;;;;;;;5.82;1.50;;;4.60;99.90;;;;;;5038961;28;20122;-38
2022/12/07 08:38:35;;;;;;;6.18;1.80;;;4.70;99.90;;;;;;5039408;28;20048;-41
2022/12/07 08:41:00;;;;;;;7.90;2.28;;;4.70;99.90;;;;;;5043720;28;20025;-39
2022/12/07 08:43:26;;;;;;;6.30;1.80;;;4.70;99.90;;;;;;5043767;28;20021;-40
2022/12/07 08:46:23;;;;;;;5.60;1.63;;;4.80;99.90;;;;;;5043129;28;20025;-39
2022/12/07 08:49:04;;;;;;;3.05;1.17;;;4.80;99.90;;;;;;5043135;28;20055;-40
2022/12/07 08:51:30;;;;;;;3.80;1.08;;;4.70;99.90;;;;;;5041217;28;20159;-40
2022/12/07 08:53:58;;;;;;;2.97;1.20;;;4.70;99.90;;;;;;5043406;28;20028;-38
2022/12/07 08:56:24;;;;;;;6.75;1.60;;;4.80;99.90;;;;;;5043311;28;20142;-40
2022/12/07 08:58:50;;;;;;;4.30;1.48;;;4.80;99.90;;;;;;5042527;28;20094;-39
2022/12/07 09:01:15;;;;;;;4.65;2.50;;;4.80;99.90;;;;;;5042766;28;20033;-39
2022/12/07 09:03:41;;;;;;;2.83;1.23;;;4.90;99.90;;;;;;5043792;28;20021;-41
2022/12/07 09:06:07;;;;;;;8.27;1.70;;;4.90;99.90;;;;;;5042294;28;20028;-40
2022/12/07 09:08:37;;;;;;;3.88;1.30;;;4.90;99.90;;;;;;5043197;28;20483;-40
2022/12/07 09:11:03;;;;;;;2.72;1.30;;;4.90;99.90;;;;;;5042975;28;20025;-40
2022/12/07 09:13:28;;;;;;;2.92;1.60;;;4.90;99.90;;;;;;5042192;28;20029;-41
2022/12/07 09:15:54;;;;;;;4.22;1.83;;;4.90;99.90;;;;;;5041434;28;20064;-40
2022/12/07 09:18:20;;;;;;;4.47;1.60;;;4.90;99.90;;;;;;5042184;28;20029;-40
2022/12/07 09:20:45;;;;;;;7.38;1.90;;;4.90;99.90;;;;;;5041648;28;20465;-40
2022/12/07 09:23:11;;;;;;;4.22;1.70;;;4.90;99.90;;;;;;5042920;28;20132;-40
2022/12/07 09:25:36;;;;;;;4.68;2.22;;;4.90;99.90;;;;;;5042431;28;20025;-40
2022/12/07 09:28:02;;;;;;;2.13;1.40;;;5.00;99.90;;;;;;5042271;28;20074;-39
2022/12/07 09:30:28;;;;;;;5.28;1.45;;;5.00;99.90;;;;;;5043531;28;20547;-40
2022/12/07 09:32:55;;;;;;;3.10;1.35;;;5.10;99.90;;;;;;5042856;28;20765;-40
2022/12/07 09:35:21;;;;;;;2.45;1.30;;;5.20;99.90;;;;;;5042107;28;20033;-40
2022/12/07 09:37:47;;;;;;;3.90;1.67;;;5.20;99.90;;;;;;5042204;28;20041;-39
2022/12/07 09:40:16;;;;;;;4.30;1.50;;;5.30;99.90;;;;;;5042428;28;20547;-40
2022/12/07 09:42:45;;;;;;;3.17;1.52;;;5.30;99.90;;;;;;5041392;28;20032;-39
2022/12/07 09:45:24;;;;;;;5.60;2.60;;;5.40;99.90;;;;;;5041907;28;20024;-40
2022/12/07 09:47:50;;;;;;;4.25;1.45;;;5.40;99.90;;;;;;5041176;28;20103;-40
2022/12/07 09:50:25;;;;;;;3.70;1.38;;;5.40;99.90;;;;;;5041801;28;20029;-40
2022/12/07 09:52:52;;;;;;;8.90;2.22;;;5.40;99.90;;;;;;5041814;28;20158;-40
2022/12/07 09:55:29;;;;;;;5.55;1.25;;;5.40;99.90;;;;;;5041730;28;20033;-41
2022/12/07 09:57:56;;;;;;;4.60;1.42;;;5.50;99.90;;;;;;5041258;28;20037;-40
2022/12/07 10:00:23;;;;;;;2.72;1.40;;;5.50;99.90;;;;;;5022872;28;20083;-40
2022/12/07 10:03:00;;;;;;;2.70;1.38;;;5.50;99.90;;;;;;5034822;28;20029;-40
2022/12/07 10:05:45;;;;;;;2.88;1.45;;;5.50;99.90;;;;;;5041961;28;20677;-40
2022/12/07 10:08:16;;;;;;;3.35;1.40;;;5.40;99.90;;;;;;5041668;28;20132;-37
2022/12/07 10:10:43;;;;;;;6.85;1.60;;;5.40;99.90;;;;;;5021697;28;20078;-39
2022/12/07 10:13:11;;;;;;;2.45;1.42;;;5.40;99.90;;;;;;5036111;28;20033;-38
2022/12/07 10:15:44;;;;;;;3.08;1.45;;;5.40;99.90;;;;;;5040455;28;20036;-40
2022/12/07 10:18:30;;;;;;;3.40;1.60;;;5.40;99.90;;;;;;5041918;28;20028;-41
2022/12/07 10:21:09;;;;;;;2.88;1.30;;;5.50;99.90;;;;;;5041061;28;20108;-40
2022/12/07 10:23:37;;;;;;;4.40;1.52;;;5.50;99.90;;;;;;5040760;28;20036;-40
2022/12/07 10:26:21;;;;;;;5.43;2.00;;;5.50;99.90;;;;;;5040468;28;20040;-40
2022/12/07 10:28:50;;;;;;;4.47;1.50;;;5.50;99.90;;;;;;5040695;28;20233;-41
2022/12/07 10:31:19;;;;;;;5.13;1.60;;;5.60;99.90;;;;;;5040472;28;20040;-40
2022/12/07 10:33:56;;;;;;;3.97;1.65;;;5.60;99.90;;;;;;5041141;28;20029;-39
2022/12/07 10:36:27;;;;;;;5.55;1.40;;;5.60;99.90;;;;;;5041361;28;20044;-40
2022/12/07 10:38:58;;;;;;;6.50;1.50;;;5.60;99.90;;;;;;5039557;28;20880;-40
2022/12/07 10:41:23;;;;;;;3.70;1.17;;;5.60;99.90;;;;;;5041111;28;20021;-38
2022/12/07 10:43:52;;;;;;;2.92;1.42;;;5.60;99.90;;;;;;5040775;28;20063;-39
2022/12/07 10:46:20;;;;;;;3.22;1.40;;;5.70;99.90;;;;;;5041080;28;20025;-40
2022/12/07 10:48:59;;;;;;;3.10;1.25;;;5.80;99.90;;;;;;5040729;28;20029;-40
2022/12/07 10:51:38;;;;;;;2.83;1.17;;;5.90;99.90;;;;;;5040655;28;20072;-40
2022/12/07 10:54:19;;;;;;;2.08;1.20;;;5.90;99.90;;;;;;5040835;28;20024;-38
2022/12/07 10:56:53;;;;;;;4.82;1.42;;;6.10;99.90;;;;;;5039446;28;20160;-40
2022/12/07 10:59:30;;;;;;;3.13;1.10;;;6.20;99.90;;;;;;5040412;28;20084;-40
2022/12/07 11:02:24;;;;;;;3.80;1.10;;;6.20;99.90;;;;;;5040069;28;20025;-39
2022/12/07 11:05:01;;;;;;;3.63;1.27;;;6.20;99.90;;;;;;5039636;28;20025;-40
2022/12/07 11:07:59;;;;;;;2.80;1.00;;;6.30;99.90;;;;;;5040677;28;20036;-36
2022/12/07 11:10:40;;;;;;;4.05;1.30;;;6.20;99.90;;;;;;5040948;28;20065;-40
2022/12/07 11:13:33;;;;;;;2.42;0.85;;;6.20;99.90;;;;;;5039999;28;20456;-38
2022/12/07 11:16:25;;;;;;;3.38;1.65;;;6.10;99.90;;;;;;5039945;28;20416;-40
2022/12/07 11:19:32;;;;;;;4.35;1.38;;;6.10;99.90;;;;;;5039495;28;20033;-40
2022/12/07 11:22:06;;;;;;;2.70;1.20;;;6.10;99.90;;;;;;5030842;28;20033;-40
2022/12/07 11:24:42;;;;;;;3.45;1.42;;;6.10;99.90;;;;;;5040054;28;20064;-40
2022/12/07 11:27:23;;;;;;;4.22;1.25;;;6.10;99.90;;;;;;5039807;28;20025;-39
2022/12/07 11:30:01;;;;;;;5.28;1.48;;;6.20;99.90;;;;;;5040227;28;20029;-40
2022/12/07 11:32:32;;;;;;;5.60;1.30;;;6.20;99.90;;;;;;5040168;28;20036;-40
2022/12/07 11:35:04;;;;;;;2.95;1.10;;;6.30;99.90;;;;;;5038808;28;20040;-40
2022/12/07 11:37:35;;;;;;;2.38;1.15;;;6.30;99.90;;;;;;5039762;28;20092;-40
2022/12/07 11:40:17;;;;;;;3.42;1.10;;;6.30;99.90;;;;;;5038246;28;20758;-40
2022/12/07 11:43:01;;;;;;;6.18;1.73;;;6.30;99.90;;;;;;5030321;28;20025;-39
2022/12/07 11:45:30;;;;;;;4.13;1.40;;;6.40;99.90;;;;;;5039953;28;20094;-40
2022/12/07 11:48:07;;;;;;;3.78;1.13;;;6.40;99.90;;;;;;5039314;28;20035;-41
2022/12/07 11:50:49;;;;;;;2.75;1.20;;;6.40;99.90;;;;;;5039256;28;20384;-41
2022/12/07 11:53:23;;;;;;;2.47;1.23;;;6.50;99.90;;;;;;5039520;28;20056;-40
2022/12/07 11:55:52;;;;;;;2.28;1.00;;;6.60;99.90;;;;;;5039533;28;20028;-42
2022/12/07 11:58:33;;;;;;;3.95;1.10;;;6.60;99.90;;;;;;5039707;28;20087;-36
2022/12/07 12:01:33;;;;;;;2.97;1.20;;;6.70;99.90;;;;;;5038850;28;20033;-37
2022/12/07 12:04:02;;;;;;;3.47;1.15;;;6.70;99.90;;;;;;5029530;28;20037;-39
2022/12/07 12:06:28;;;;;;;5.93;1.40;;;6.70;99.90;;;;;;5039435;28;20128;-37
2022/12/07 12:09:05;;;;;;;7.43;1.60;;;6.70;99.90;;;;;;5038863;28;20029;-39
2022/12/07 12:11:56;;;;;;;2.63;1.00;;;6.70;99.90;;;;;;5039730;28;20036;-39
2022/12/07 12:14:27;;;;;;;4.18;2.00;;;6.60;99.90;;;;;;5039918;28;20090;-39
2022/12/07 12:17:20;;;;;;;2.72;1.20;;;6.50;99.90;;;;;;5038784;28;20125;-40
2022/12/07 12:20:14;;;;;;;;;;;6.50;99.90;;;;;;5040553;28;20037;-40
2022/12/07 12:22:46;;;;;;;3.20;1.27;;;6.50;99.90;;;;;;5038895;28;19995;-39
2022/12/07 12:25:28;;;;;;;2.15;1.00;;;6.50;99.90;;;;;;5019685;28;20105;-40
2022/12/07 12:27:57;;;;;;;2.50;1.10;;;6.50;99.90;;;;;;5035971;28;20043;-40
2022/12/07 12:30:34;;;;;;;5.07;1.05;;;6.50;99.90;;;;;;5019227;28;20079;-40
2022/12/07 12:33:26;;;;;;;2.83;1.00;;;6.50;99.90;;;;;;5034618;28;20572;-41
2022/12/07 12:36:27;;;;;;;3.25;1.13;;;6.60;99.90;;;;;;5019507;28;20033;-39
2022/12/07 12:38:58;;;;;;;4.80;1.30;;;6.70;99.90;;;;;;5039158;28;20567;-40
2022/12/07 12:41:36;;;;;;;4.10;1.30;;;6.80;99.90;;;;;;5039644;28;20029;-41
2022/12/07 12:44:23;;;;;;;3.45;1.63;;;6.90;99.90;;;;;;5038632;28;20025;-41
2022/12/07 12:46:51;;;;;;;2.92;1.10;;;7.00;99.90;;;;;;5027346;28;20048;-39
2022/12/07 12:49:19;;;;;;;3.50;1.30;;;7.00;99.90;;;;;;5035019;28;20021;-39
2022/12/07 12:51:54;;;;;;;3.72;1.40;;;7.00;99.90;;;;;;5039058;28;20086;-33
2022/12/07 12:54:25;;;;;;;4.95;1.63;;;7.00;99.90;;;;;;5037867;28;20552;-39
2022/12/07 12:57:15;;;;;;;4.13;1.80;;;7.00;99.90;;;;;;5038991;28;20069;-39
2022/12/07 12:59:53;;;;;;;5.28;1.80;;;7.00;99.90;;;;;;5036330;28;20025;-39
2022/12/07 13:02:47;;;;;;;3.78;1.30;;;7.00;99.90;;;;;;5039483;28;20048;-39
2022/12/07 13:05:13;;;;;;;2.95;1.30;;;7.00;99.90;;;;;;5037629;28;20725;-39
2022/12/07 13:07:44;;;;;;;6.05;1.23;;;7.00;99.90;;;;;;5038996;28;20025;-39
2022/12/07 13:10:32;;;;;;;4.80;1.10;;;7.00;99.90;;;;;;5039173;28;20051;-39
2022/12/07 13:13:09;;;;;;;2.17;1.10;;;7.00;99.90;;;;;;5038464;28;20032;-40
2022/12/07 13:15:38;;;;;;;5.47;1.38;;;7.00;99.90;;;;;;5028328;28;20033;-40
2022/12/07 13:18:23;;;;;;;4.53;1.40;;;7.00;99.90;;;;;;5039146;28;20048;-41
2022/12/07 13:21:07;;;;;;;3.88;1.42;;;7.10;99.90;;;;;;5028838;28;20037;-40